Time;durP1;ratioP1;P1;durP2;ratioP2;P2;SDS_P1;SDS_P2;PMS_P1;PMS_P2;Temp;Humidity;BMP_temperature;BMP_pressure;BME280_temperature;BME280_humidity;BME280_pressure;Samples;Min_cycle;Max_cycle;Signal;HPM_P1;HPM_P2
2022/06/08 00:00:01;;;;;;;29.35;21.17;;;;;;;16.14;91.61;101114.31;5024147;28;19921;-71
2022/06/08 00:02:30;;;;;;;27.20;21.17;;;;;;;16.02;91.80;101118.56;5018670;28;20064;-72
2022/06/08 00:04:55;;;;;;;28.73;21.70;;;;;;;16.07;91.71;101111.69;5020684;28;20132;-72
2022/06/08 00:07:21;;;;;;;31.30;21.85;;;;;;;16.05;91.38;101116.00;5018807;28;20040;-72
2022/06/08 00:09:46;;;;;;;31.88;22.85;;;;;;;16.00;91.71;101106.44;5017471;28;20025;-72
2022/06/08 00:12:12;;;;;;;30.25;22.42;;;;;;;15.95;92.13;101103.78;5015416;28;20030;-72
2022/06/08 00:14:38;;;;;;;32.80;24.10;;;;;;;15.91;92.15;101106.34;5022850;28;20038;-72
2022/06/08 00:17:05;;;;;;;30.00;23.33;;;;;;;15.95;92.18;101096.00;5019866;28;20099;-72
2022/06/08 00:19:30;;;;;;;33.38;23.58;;;;;;;15.96;92.00;101091.72;5019227;28;20060;-72
2022/06/08 00:21:56;;;;;;;32.10;23.20;;;;;;;15.94;92.17;101096.84;5015018;28;20528;-72
2022/06/08 00:24:21;;;;;;;32.55;23.20;;;;;;;15.96;91.86;101086.53;5020309;28;20084;-72
2022/06/08 00:26:47;;;;;;;31.10;23.25;;;;;;;15.89;92.18;101087.28;5020188;28;20483;-72
2022/06/08 00:29:13;;;;;;;28.90;23.40;;;;;;;15.86;92.11;101093.34;5018746;28;20040;-72
2022/06/08 00:31:38;;;;;;;31.33;23.80;;;;;;;15.85;92.18;101086.41;5015900;28;21509;-72
2022/06/08 00:34:03;;;;;;;31.35;23.63;;;;;;;15.78;92.51;101076.84;5020640;28;20029;-72
2022/06/08 00:36:29;;;;;;;34.05;24.60;;;;;;;15.86;92.11;101080.38;5017102;28;20104;-72
2022/06/08 00:38:54;;;;;;;33.72;24.42;;;;;;;15.78;92.01;101085.47;5024108;28;20037;-72
2022/06/08 00:41:36;;;;;;;31.90;24.25;;;;;;;15.79;92.62;101075.97;5013307;28;20092;-71
2022/06/08 00:44:07;;;;;;;30.38;23.20;;;;;;;15.74;93.00;101072.47;5017439;28;20116;-72
2022/06/08 00:46:33;;;;;;;34.65;24.83;;;;;;;15.72;92.95;101069.88;5021512;28;20041;-72
2022/06/08 00:49:31;;;;;;;34.53;25.58;;;;;;;15.81;92.58;101071.66;5023900;28;20589;-72
2022/06/08 00:51:59;;;;;;;34.53;24.45;;;;;;;15.75;92.54;101063.81;5013542;28;20038;-72
2022/06/08 00:54:30;;;;;;;35.10;24.75;;;;;;;15.78;92.27;101066.47;5022384;28;20033;-72
2022/06/08 00:57:19;;;;;;;32.53;24.85;;;;;;;15.74;92.81;101062.09;5013928;28;20484;-72
2022/06/08 00:59:54;;;;;;;31.92;24.92;;;;;;;15.69;92.98;101059.44;5018644;28;20772;-72
2022/06/08 01:02:19;;;;;;;35.15;25.50;;;;;;;15.75;93.25;101062.09;5016664;28;20037;-72
2022/06/08 01:04:45;;;;;;;36.28;26.30;;;;;;;15.64;92.81;101055.94;5018317;28;20032;-72
2022/06/08 01:07:19;;;;;;;35.88;25.55;;;;;;;15.68;92.99;101049.94;5017213;28;20045;-72
2022/06/08 01:09:45;;;;;;;34.58;25.25;;;;;;;15.63;92.67;101049.00;5017628;28;20033;-72
2022/06/08 01:12:20;;;;;;;35.15;25.52;;;;;;;15.63;93.14;101048.16;5019441;28;20048;-72
2022/06/08 01:14:47;;;;;;;36.10;26.52;;;;;;;15.59;93.00;101051.50;5022114;28;20499;-72
2022/06/08 01:17:18;;;;;;;36.22;26.27;;;;;;;15.58;92.94;101042.88;5020321;28;20028;-72
2022/06/08 01:19:46;;;;;;;35.15;25.98;;;;;;;15.50;93.40;101034.16;5022414;28;20483;-72
2022/06/08 01:22:17;;;;;;;37.50;26.83;;;;;;;15.53;93.33;101032.47;5021196;28;20061;-71
2022/06/08 01:24:48;;;;;;;35.67;26.23;;;;;;;15.56;93.37;101027.31;5015992;28;20124;-72
2022/06/08 01:27:19;;;;;;;33.67;26.33;;;;;;;15.59;93.33;101029.06;5023047;28;20018;-72
2022/06/08 01:30:02;;;;;;;34.63;26.48;;;;;;;15.59;93.16;101026.47;5018330;28;20034;-72
2022/06/08 01:32:34;;;;;;;34.00;26.60;;;;;;;15.55;93.10;101019.53;5020963;28;20029;-72
2022/06/08 01:35:26;;;;;;;35.10;26.05;;;;;;;15.60;92.72;101017.00;5016062;28;20372;-72
2022/06/08 01:37:52;;;;;;;32.08;25.27;;;;;;;15.53;92.87;101019.53;5022006;28;20493;-72
2022/06/08 01:41:02;;;;;;;32.78;25.73;;;;;;;15.57;92.60;101007.44;5017008;28;20547;-72
2022/06/08 01:43:51;;;;;;;34.63;25.65;;;;;;;15.57;92.64;100999.66;5020011;28;20103;-72
2022/06/08 01:46:26;;;;;;;34.58;25.45;;;;;;;15.55;92.26;101002.25;5019663;28;20036;-72
2022/06/08 01:49:13;;;;;;;31.63;25.35;;;;;;;15.52;92.55;100999.63;5019996;28;20041;-72
2022/06/08 01:52:04;;;;;;;30.65;24.73;;;;;;;15.51;92.21;100999.63;5010587;28;20391;-72
2022/06/08 01:54:39;;;;;;;34.40;25.67;;;;;;;15.39;92.12;100992.59;5019434;28;20032;-71
2022/06/08 01:57:23;;;;;;;30.33;24.20;;;;;;;15.39;92.51;100983.94;5020569;28;20064;-72
2022/06/08 01:59:48;;;;;;;35.10;25.88;;;;;;;15.29;92.46;100989.03;5013291;28;20040;-72
2022/06/08 02:02:32;;;;;;;34.05;25.67;;;;;;;15.41;92.20;100987.41;5018265;28;20029;-72
2022/06/08 02:05:13;;;;;;;29.88;24.10;;;;;;;15.41;92.34;100972.75;5014372;28;20118;-72
2022/06/08 02:07:44;;;;;;;31.52;24.88;;;;;;;15.31;92.48;100970.91;5019329;28;20033;-72
2022/06/08 02:10:26;;;;;;;31.77;25.20;;;;;;;15.33;92.39;100966.59;5017409;28;20032;-72
2022/06/08 02:12:56;;;;;;;32.40;25.33;;;;;;;15.28;92.41;100965.69;5020739;28;20038;-72
2022/06/08 02:15:29;;;;;;;30.83;24.88;;;;;;;15.29;92.17;100959.69;5017534;28;20056;-72
2022/06/08 02:17:58;;;;;;;31.95;25.00;;;;;;;15.28;92.19;100957.91;5018287;28;20492;-72
2022/06/08 02:20:36;;;;;;;33.13;25.38;;;;;;;15.31;92.37;100946.72;5021209;28;20036;-72
2022/06/08 02:23:18;;;;;;;33.95;25.30;;;;;;;15.31;92.21;100945.00;5029041;28;20076;-72
2022/06/08 02:25:53;;;;;;;33.00;25.90;;;;;;;15.26;92.24;100947.53;5020928;28;20033;-72
2022/06/08 02:28:27;;;;;;;31.80;24.88;;;;;;;15.21;92.10;100932.81;5019943;28;20037;-72
2022/06/08 02:30:58;;;;;;;31.88;24.17;;;;;;;15.19;91.75;100932.78;5020876;28;20021;-72
2022/06/08 02:36:21;;;;;;;31.58;24.42;;;;;;;15.14;92.02;100921.50;5019485;28;20111;-72
2022/06/08 02:38:52;;;;;;;31.70;23.35;;;;;;;15.12;92.01;100925.81;5020109;28;20187;-72
2022/06/08 02:41:20;;;;;;;28.50;23.60;;;;;;;15.06;92.12;100924.88;5021557;28;20022;-72
2022/06/08 02:43:51;;;;;;;33.47;23.70;;;;;;;15.09;91.98;100927.50;5021525;28;20511;-72
2022/06/08 02:46:28;;;;;;;30.55;23.05;;;;;;;15.05;92.09;100918.84;5017865;28;20029;-72
2022/06/08 02:48:53;;;;;;;28.33;22.58;;;;;;;14.99;92.08;100914.47;5014337;28;20045;-72
2022/06/08 02:51:29;;;;;;;26.33;21.17;;;;;;;15.02;92.22;100916.22;5024027;28;20030;-72
2022/06/08 02:53:59;;;;;;;27.10;21.75;;;;;;;15.08;91.85;100910.22;5021789;28;20136;-72
2022/06/08 02:56:31;;;;;;;26.33;20.88;;;;;;;14.98;92.13;100915.28;5017535;28;20026;-72
2022/06/08 02:59:05;;;;;;;27.52;21.80;;;;;;;15.05;92.11;100916.25;5016755;28;20112;-72
2022/06/08 03:01:50;;;;;;;28.25;21.48;;;;;;;15.08;91.95;100910.22;5020654;28;20033;-72
2022/06/08 03:04:23;;;;;;;26.25;20.52;;;;;;;14.98;91.90;100912.69;5015899;28;20033;-72
2022/06/08 03:06:59;;;;;;;26.48;20.30;;;;;;;15.06;92.02;100904.19;5017644;28;20049;-72
2022/06/08 03:09:25;;;;;;;25.23;19.92;;;;;;;14.97;91.62;100892.84;5022876;28;20029;-72
2022/06/08 03:11:59;;;;;;;25.17;19.27;;;;;;;15.01;91.99;100889.44;5022779;28;20396;-72
2022/06/08 03:14:27;;;;;;;26.13;20.17;;;;;;;14.95;91.94;100894.56;5018748;28;20507;-71
2022/06/08 03:17:03;;;;;;;25.52;19.55;;;;;;;15.02;91.89;100891.19;5012611;28;20107;-72
2022/06/08 03:19:31;;;;;;;28.05;19.55;;;;;;;15.00;91.66;100892.91;5025834;28;20029;-72
2022/06/08 03:21:57;;;;;;;26.05;18.83;;;;;;;14.89;91.73;100891.91;5022791;28;20096;-72
2022/06/08 03:24:24;;;;;;;25.13;18.45;;;;;;;14.92;91.75;100893.66;5021667;28;20036;-72
2022/06/08 03:26:55;;;;;;;23.58;17.52;;;;;;;14.95;92.13;100899.75;5017742;28;20033;-72
2022/06/08 03:29:20;;;;;;;22.67;17.73;;;;;;;14.95;92.08;100893.69;5019883;28;20541;-72
2022/06/08 03:31:46;;;;;;;23.65;18.17;;;;;;;14.94;91.86;100903.19;5018335;28;20034;-72
2022/06/08 03:34:12;;;;;;;20.75;16.58;;;;;;;14.97;91.87;100899.75;5020533;28;20042;-72
2022/06/08 03:36:37;;;;;;;21.75;17.52;;;;;;;14.91;91.60;100905.72;5020173;28;20033;-72
2022/06/08 03:39:04;;;;;;;21.63;16.25;;;;;;;14.87;91.69;100893.63;5015883;28;20578;-72
2022/06/08 03:41:29;;;;;;;22.17;17.58;;;;;;;14.87;92.07;100903.13;5020232;28;20033;-72
2022/06/08 03:43:57;;;;;;;20.17;15.82;;;;;;;14.85;92.71;100897.88;5022825;28;20474;-72
2022/06/08 03:46:22;;;;;;;22.05;16.98;;;;;;;14.85;92.67;100899.63;5021925;28;20501;-72
2022/06/08 03:48:48;;;;;;;21.13;16.75;;;;;;;14.81;92.93;100903.03;5024423;28;20041;-71
2022/06/08 03:51:16;;;;;;;21.75;16.83;;;;;;;14.82;93.61;100899.59;5020555;28;20112;-72
2022/06/08 03:53:55;;;;;;;20.88;16.13;;;;;;;14.93;93.55;100903.19;5020771;28;20025;-71
2022/06/08 03:56:21;;;;;;;;;;;;;;;15.08;91.84;100900.72;5033761;28;20060;-72
2022/06/08 03:58:47;;;;;;;20.27;15.40;;;;;;;14.93;93.88;100909.22;5021456;28;19948;-71
2022/06/08 04:01:14;;;;;;;19.15;14.38;;;;;;;14.94;94.46;100913.53;5017054;28;20211;-71
2022/06/08 04:03:39;;;;;;;17.95;14.05;;;;;;;14.92;94.46;100904.00;5024001;28;20043;-71
2022/06/08 04:06:05;;;;;;;16.95;13.60;;;;;;;14.94;94.54;100903.19;5016840;28;20037;-72
2022/06/08 04:08:31;;;;;;;18.23;14.43;;;;;;;14.92;94.54;100894.50;5014862;28;20178;-71
2022/06/08 04:10:58;;;;;;;19.15;13.15;;;;;;;14.94;94.57;100892.84;5014108;28;20029;-71
2022/06/08 04:13:24;;;;;;;18.38;12.95;;;;;;;14.96;94.69;100887.66;5013390;28;20494;-71
2022/06/08 04:15:49;;;;;;;15.20;12.13;;;;;;;15.02;94.80;100892.91;5014315;28;20025;-71
2022/06/08 04:18:20;;;;;;;19.33;11.68;;;;;;;15.01;94.60;100886.00;5011992;28;20033;-71
2022/06/08 04:20:50;;;;;;;13.98;11.48;;;;;;;14.99;95.24;100886.00;5014104;28;20061;-71
2022/06/08 04:23:17;;;;;;;14.95;12.13;;;;;;;14.99;95.21;100869.59;5014826;28;20114;-71
2022/06/08 04:25:44;;;;;;;18.17;11.30;;;;;;;15.06;95.10;100879.16;5010687;28;20559;-71
2022/06/08 04:28:10;;;;;;;14.80;11.73;;;;;;;15.11;94.95;100876.59;5014423;28;20026;-71
2022/06/08 04:30:36;;;;;;;12.52;10.45;;;;;;;15.10;95.27;100878.28;5010177;28;20037;-71
2022/06/08 04:33:02;;;;;;;14.13;10.73;;;;;;;15.14;95.18;100884.38;5020118;28;20396;-71
2022/06/08 04:35:28;;;;;;;13.52;10.80;;;;;;;15.13;95.36;100887.84;5013028;28;20029;-71
2022/06/08 04:37:54;;;;;;;13.85;10.43;;;;;;;15.15;95.22;100884.41;5018914;28;20369;-71
2022/06/08 04:40:21;;;;;;;15.88;10.40;;;;;;;15.12;95.34;100878.34;5021657;28;20113;-71
2022/06/08 04:42:46;;;;;;;13.80;10.18;;;;;;;15.15;95.56;100875.75;5016223;28;20750;-71
2022/06/08 04:45:13;;;;;;;12.30;9.77;;;;;;;15.18;95.81;100873.22;5014434;28;20484;-71
2022/06/08 04:47:38;;;;;;;12.77;9.13;;;;;;;15.20;95.68;100877.53;5007039;28;20459;-71
2022/06/08 04:50:05;;;;;;;11.77;9.07;;;;;;;15.19;95.63;100868.03;5007580;28;20072;-71
2022/06/08 04:52:31;;;;;;;12.35;9.93;;;;;;;15.20;96.08;100864.59;5013106;28;20045;-72
2022/06/08 04:54:57;;;;;;;11.18;9.23;;;;;;;15.26;96.21;100856.00;5007476;28;20187;-71
2022/06/08 04:57:23;;;;;;;10.93;8.80;;;;;;;15.29;96.57;100858.66;5018544;28;20099;-71
2022/06/08 04:59:48;;;;;;;10.95;9.25;;;;;;;15.26;96.86;100846.50;5014141;28;20092;-71
2022/06/08 05:02:42;;;;;;;13.65;10.70;;;;;;;15.34;96.48;100843.13;5021434;28;20022;-71
2022/06/08 05:04:59;;;;;;;14.40;9.80;;;;;;;15.37;96.46;100849.19;5017324;28;20053;-71
2022/06/08 05:07:25;;;;;;;14.13;10.55;;;;;;;15.43;96.57;100853.56;5017898;28;20034;-71
2022/06/08 05:09:50;;;;;;;13.05;9.75;;;;;;;15.44;96.77;100855.28;5018627;28;20032;-71
2022/06/08 05:12:16;;;;;;;13.30;10.00;;;;;;;15.47;96.30;100852.72;5027920;28;20018;-71
2022/06/08 05:14:42;;;;;;;13.75;9.18;;;;;;;15.46;96.98;100846.66;5018462;28;20496;-71
2022/06/08 05:17:07;;;;;;;11.68;9.40;;;;;;;15.46;97.18;100846.66;5024345;28;20045;-71
2022/06/08 05:19:33;;;;;;;12.05;9.30;;;;;;;15.47;96.91;100835.47;5019798;28;20495;-71
2022/06/08 05:21:58;;;;;;;11.68;8.98;;;;;;;15.51;97.00;100838.94;5020733;28;20807;-71
2022/06/08 05:24:23;;;;;;;12.85;8.55;;;;;;;15.49;96.63;100830.28;5023484;28;20026;-71
2022/06/08 05:26:49;;;;;;;10.68;8.00;;;;;;;15.55;96.22;100827.75;5019287;28;20045;-71
2022/06/08 05:29:14;;;;;;;12.25;8.00;;;;;;;15.55;96.51;100822.56;5015370;28;20044;-71
2022/06/08 05:31:39;;;;;;;9.82;8.02;;;;;;;15.55;96.62;100823.44;5018477;28;20483;-71
2022/06/08 05:34:05;;;;;;;9.88;6.97;;;;;;;15.57;96.03;100821.69;5021826;28;20045;-71
2022/06/08 05:36:30;;;;;;;8.57;6.85;;;;;;;15.59;96.25;100807.88;5019008;28;20031;-71
2022/06/08 05:38:56;;;;;;;8.25;6.70;;;;;;;15.59;96.29;100811.34;5016727;28;20476;-71
2022/06/08 05:41:21;;;;;;;8.20;7.05;;;;;;;15.61;95.86;100811.38;5021425;28;20037;-71
2022/06/08 05:43:46;;;;;;;7.25;6.47;;;;;;;15.64;96.17;100812.28;5023546;28;20045;-71
2022/06/08 05:46:12;;;;;;;10.63;7.13;;;;;;;15.62;95.78;100810.50;4983724;28;20033;-72
2022/06/08 05:48:37;;;;;;;9.23;6.88;;;;;;;15.64;95.95;100801.03;5020766;28;20041;-72
2022/06/08 05:51:03;;;;;;;9.55;6.70;;;;;;;15.65;95.92;100808.84;5017895;28;20029;-71
2022/06/08 05:53:28;;;;;;;8.52;6.65;;;;;;;15.66;95.63;100799.34;5021232;28;20036;-71
2022/06/08 05:55:54;;;;;;;7.78;6.97;;;;;;;15.68;96.06;100797.63;5022926;28;20437;-71
2022/06/08 05:58:19;;;;;;;9.25;6.75;;;;;;;15.71;96.47;100797.63;5020728;28;20107;-71
2022/06/08 06:00:44;;;;;;;7.97;6.88;;;;;;;15.73;96.06;100798.53;5023528;28;20171;-72
2022/06/08 06:03:10;;;;;;;8.60;6.63;;;;;;;15.74;96.44;100800.25;5024768;28;20407;-71
2022/06/08 06:05:38;;;;;;;7.50;6.30;;;;;;;15.77;96.84;100797.66;5021441;28;20045;-72
2022/06/08 06:08:05;;;;;;;8.40;7.00;;;;;;;15.80;96.77;100783.00;5021495;28;20067;-71
2022/06/08 06:10:34;;;;;;;7.45;6.68;;;;;;;15.82;96.56;100780.41;5017370;28;20022;-72
2022/06/08 06:12:59;;;;;;;7.95;6.53;;;;;;;15.84;96.50;100773.53;5019249;28;20811;-72
2022/06/08 06:15:25;;;;;;;8.98;7.00;;;;;;;15.88;96.44;100769.22;5024250;28;20639;-72
2022/06/08 06:17:51;;;;;;;10.50;7.10;;;;;;;15.90;97.00;100775.28;5028670;28;20368;-71
2022/06/08 06:20:17;;;;;;;9.07;6.65;;;;;;;15.91;96.21;100785.66;5025953;28;20462;-72
2022/06/08 06:22:43;;;;;;;8.23;6.60;;;;;;;15.94;96.60;100785.66;5038893;28;20574;-72
2022/06/08 06:25:10;;;;;;;9.43;6.53;;;;;;;15.96;97.06;100789.16;5021974;28;20293;-72
2022/06/08 06:27:35;;;;;;;10.38;6.95;;;;;;;16.00;96.10;100783.09;5022801;28;20065;-72
2022/06/08 06:30:02;;;;;;;7.93;6.85;;;;;;;15.99;96.13;100788.28;5021291;28;20409;-71
2022/06/08 06:32:31;;;;;;;9.20;6.95;;;;;;;16.03;96.20;100783.13;5020790;28;20324;-72
2022/06/08 06:34:58;;;;;;;9.20;6.72;;;;;;;16.02;96.14;100784.00;5019596;28;20396;-72
2022/06/08 06:37:24;;;;;;;10.38;6.75;;;;;;;16.04;96.91;100787.44;5019327;28;20033;-72
2022/06/08 06:39:51;;;;;;;9.25;6.25;;;;;;;16.08;96.89;100791.78;5025251;28;20041;-72
2022/06/08 06:42:18;;;;;;;10.50;6.50;;;;;;;16.09;97.07;100790.94;5020077;28;20055;-72
2022/06/08 06:44:44;;;;;;;9.93;6.88;;;;;;;16.13;97.08;100796.13;5021780;28;20123;-74
2022/06/08 06:47:09;;;;;;;8.82;6.40;;;;;;;16.12;96.77;100792.66;5017353;28;20073;-73
2022/06/08 06:49:35;;;;;;;8.77;6.13;;;;;;;16.14;96.72;100797.84;5024931;28;20103;-73
2022/06/08 06:52:00;;;;;;;8.38;5.57;;;;;;;16.17;96.31;100790.09;5018741;28;20074;-73
2022/06/08 06:54:26;;;;;;;6.90;5.35;;;;;;;16.20;96.01;100790.09;5022013;28;20056;-75
2022/06/08 06:56:51;;;;;;;6.82;4.40;;;;;;;16.24;95.81;100786.66;5019915;28;20049;-74
2022/06/08 06:59:17;;;;;;;6.72;4.55;;;;;;;16.31;95.25;100770.25;5025180;28;20087;-72
2022/06/08 07:01:42;;;;;;;8.77;4.80;;;;;;;16.36;95.57;100773.72;5020608;28;20468;-71
2022/06/08 07:04:08;;;;;;;7.80;4.70;;;;;;;16.45;94.77;100771.16;5025084;28;20108;-71
2022/06/08 07:06:33;;;;;;;6.18;3.92;;;;;;;16.62;94.31;100763.38;5025025;28;20692;-70
2022/06/08 07:09:01;;;;;;;6.32;4.22;;;;;;;16.76;95.40;100764.34;5016910;28;20065;-71
2022/06/08 07:11:40;;;;;;;6.77;3.80;;;;;;;16.83;94.12;100760.00;5024149;28;20365;-71
2022/06/08 07:14:10;;;;;;;8.27;3.60;;;;;;;16.97;93.29;100760.00;5022080;28;20075;-70
2022/06/08 07:16:36;;;;;;;5.07;3.67;;;;;;;17.04;91.99;100754.81;5012854;28;20124;-70
2022/06/08 07:19:01;;;;;;;8.77;3.83;;;;;;;17.10;92.72;100754.81;5022224;28;20159;-70
2022/06/08 07:21:27;;;;;;;6.72;3.78;;;;;;;17.21;92.81;100756.53;5021365;28;20503;-69
2022/06/08 07:23:54;;;;;;;4.78;3.45;;;;;;;17.36;91.03;100759.13;5025211;28;20409;-70
2022/06/08 07:26:19;;;;;;;7.32;3.70;;;;;;;17.43;91.52;100763.44;5029452;28;20041;-69
2022/06/08 07:28:45;;;;;;;6.22;3.53;;;;;;;17.50;90.73;100744.38;5019703;28;20025;-69
2022/06/08 07:31:14;;;;;;;8.30;3.90;;;;;;;17.63;92.08;100751.25;5022612;28;20029;-70
2022/06/08 07:33:40;;;;;;;9.52;3.58;;;;;;;17.68;90.13;100743.47;5015264;28;20033;-70
2022/06/08 07:36:06;;;;;;;6.50;3.80;;;;;;;17.76;89.91;100743.47;5013712;28;20033;-69
2022/06/08 07:38:31;;;;;;;8.73;3.50;;;;;;;17.97;89.61;100740.78;5021157;28;20481;-70
2022/06/08 07:40:57;;;;;;;12.25;3.40;;;;;;;18.14;88.97;100732.88;5023118;28;21277;-69
2022/06/08 07:43:23;;;;;;;6.72;3.20;;;;;;;18.28;88.89;100738.03;5022222;28;20049;-69
2022/06/08 07:45:49;;;;;;;5.40;3.45;;;;;;;18.33;86.92;100737.16;5018317;28;20164;-69
2022/06/08 07:50:58;;;;;;;11.45;3.03;;;;;;;18.53;84.97;100738.75;5018302;28;20144;-70
2022/06/08 07:53:23;;;;;;;6.00;2.75;;;;;;;18.71;84.88;100742.13;5017951;28;20052;-69
2022/06/08 07:55:49;;;;;;;6.22;2.80;;;;;;;18.70;85.63;100735.19;5016657;28;20037;-69
2022/06/08 07:58:15;;;;;;;7.88;2.90;;;;;;;18.74;84.74;100739.47;5021847;28;20037;-69
2022/06/08 08:00:46;;;;;;;5.80;2.80;;;;;;;18.62;83.29;100739.53;5021913;28;20410;-68
2022/06/08 08:03:14;;;;;;;7.32;2.85;;;;;;;18.54;83.50;100741.34;5022412;28;20045;-69
2022/06/08 08:05:40;;;;;;;7.50;2.90;;;;;;;18.49;83.94;100745.72;5023082;28;20490;-69
2022/06/08 08:08:06;;;;;;;7.28;2.90;;;;;;;18.47;84.14;100747.47;5024273;28;20060;-69
2022/06/08 08:10:31;;;;;;;8.52;3.15;;;;;;;18.45;84.84;100749.22;5012920;28;20033;-70
2022/06/08 08:12:57;;;;;;;10.40;3.40;;;;;;;18.44;85.35;100750.06;5017833;28;20057;-68
2022/06/08 08:15:26;;;;;;;7.97;2.90;;;;;;;18.41;83.71;100750.97;5017632;28;20510;-70
2022/06/08 08:17:51;;;;;;;;;;;;;;;18.52;84.51;100739.63;5023970;28;20044;-70
2022/06/08 08:20:19;;;;;;;7.65;3.00;;;;;;;18.41;86.04;100744.91;5020669;28;20292;-69
2022/06/08 08:22:46;;;;;;;7.22;2.95;;;;;;;18.40;84.36;100736.22;5020657;28;20046;-70
2022/06/08 08:25:14;;;;;;;6.38;3.05;;;;;;;18.39;85.31;100739.72;5020358;28;20174;-70
2022/06/08 08:27:40;;;;;;;6.05;2.47;;;;;;;18.40;83.72;100731.03;5021299;28;20040;-72
2022/06/08 08:30:06;;;;;;;6.72;2.70;;;;;;;18.40;84.86;100743.19;5019512;28;20083;-71
2022/06/08 08:32:31;;;;;;;8.18;2.63;;;;;;;18.38;84.25;100743.19;5021412;28;20125;-72
2022/06/08 08:34:56;;;;;;;7.20;3.08;;;;;;;18.37;82.16;100745.78;5018592;28;20061;-72
2022/06/08 08:37:22;;;;;;;6.85;2.80;;;;;;;18.31;82.54;100738.88;5017476;28;20037;-73
2022/06/08 08:39:47;;;;;;;7.28;2.72;;;;;;;18.29;82.07;100737.16;5011134;28;20029;-73
2022/06/08 08:42:23;;;;;;;9.10;3.10;;;;;;;18.27;82.58;100746.72;4996892;28;20034;-70
2022/06/08 08:44:53;;;;;;;6.13;3.20;;;;;;;18.26;83.41;100739.75;5006735;28;20033;-72
2022/06/08 08:47:21;;;;;;;7.38;2.88;;;;;;;18.21;83.47;100740.69;5016451;28;20112;-71
2022/06/08 08:49:53;;;;;;;8.35;2.95;;;;;;;18.22;84.00;100733.72;5012001;28;20087;-72
2022/06/08 08:52:55;;;;;;;8.10;3.00;;;;;;;18.25;83.74;100736.31;5016935;28;20037;-73
2022/06/08 08:55:30;;;;;;;7.63;2.97;;;;;;;18.20;83.36;100736.34;4983544;28;20069;-71
2022/06/08 08:58:27;;;;;;;8.00;2.90;;;;;;;18.24;83.75;100742.38;5026057;28;20583;-71
2022/06/08 09:00:58;;;;;;;8.57;3.10;;;;;;;18.17;84.53;100738.94;5015060;28;20053;-71
2022/06/08 09:03:35;;;;;;;6.25;2.90;;;;;;;18.18;83.59;100743.28;5018798;28;20384;-73
2022/06/08 09:06:12;;;;;;;10.93;3.00;;;;;;;18.19;83.84;100742.41;5019499;28;20044;-71
2022/06/08 09:08:37;;;;;;;7.57;2.92;;;;;;;18.14;84.21;100741.59;5016463;28;20497;-72
2022/06/08 09:11:03;;;;;;;7.63;2.70;;;;;;;18.14;84.73;100738.97;5014472;28;20561;-71
2022/06/08 09:13:55;;;;;;;7.30;4.03;;;;;;;18.18;84.55;100740.69;5018753;28;20061;-71
2022/06/08 09:16:45;;;;;;;7.05;2.72;;;;;;;18.21;84.10;100747.63;5018252;28;20033;-71
2022/06/08 09:19:32;;;;;;;4.97;2.65;;;;;;;18.18;83.36;100747.63;5003449;28;20038;-72
2022/06/08 09:22:03;;;;;;;7.28;2.50;;;;;;;18.14;83.57;100744.19;5014982;28;20120;-72
2022/06/08 09:24:36;;;;;;;7.13;2.70;;;;;;;18.11;82.44;100741.59;5015546;28;20032;-71
2022/06/08 09:27:16;;;;;;;8.88;2.60;;;;;;;18.11;82.67;100744.19;5017280;28;20477;-71
2022/06/08 09:29:48;;;;;;;11.05;2.90;;;;;;;18.10;83.43;100742.47;5022807;28;20025;-71
2022/06/08 09:32:40;;;;;;;9.45;2.45;;;;;;;18.10;84.01;100739.00;5025186;28;20592;-71
2022/06/08 09:35:17;;;;;;;9.20;3.05;;;;;;;18.10;84.13;100741.59;5019951;28;20460;-71
2022/06/08 09:37:43;;;;;;;10.65;2.80;;;;;;;18.03;84.28;100740.75;5025173;28;20487;-71
2022/06/08 09:40:36;;;;;;;8.40;2.60;;;;;;;18.00;85.13;100745.97;5022972;28;20037;-71
2022/06/08 09:43:25;;;;;;;9.32;3.03;;;;;;;18.00;84.67;100745.97;5018436;28;20108;-70
2022/06/08 09:46:05;;;;;;;7.70;2.70;;;;;;;18.01;84.72;100747.69;5026258;28;20047;-72
2022/06/08 09:51:42;;;;;;;7.78;2.78;;;;;;;17.96;86.50;100744.28;5026876;28;20040;-71
2022/06/08 09:54:11;;;;;;;8.88;2.95;;;;;;;17.91;86.29;100741.69;5017950;28;20057;-72
2022/06/08 09:56:42;;;;;;;7.32;3.03;;;;;;;17.94;87.26;100752.06;5018664;28;20041;-72
2022/06/08 09:59:17;;;;;;;7.53;3.13;;;;;;;17.95;87.19;100755.53;5029632;28;20388;-72
2022/06/08 10:01:46;;;;;;;6.97;3.00;;;;;;;17.95;86.89;100752.91;5022394;28;20034;-72
2022/06/08 10:04:33;;;;;;;9.35;3.55;;;;;;;17.99;87.51;100749.44;5021725;28;20029;-72
2022/06/08 10:07:13;;;;;;;7.15;3.15;;;;;;;17.94;86.96;100759.84;5021766;28;20033;-73
2022/06/08 10:10:15;;;;;;;7.30;2.78;;;;;;;17.91;86.75;100751.22;5022910;28;20037;-72
2022/06/08 10:12:43;;;;;;;8.52;3.33;;;;;;;17.88;87.52;100754.69;5001386;28;20037;-72
2022/06/08 10:15:24;;;;;;;8.38;3.05;;;;;;;17.89;86.82;100745.13;5018328;28;21300;-72
2022/06/08 10:18:14;;;;;;;8.35;2.90;;;;;;;17.88;87.85;100751.22;5018725;28;20069;-72
2022/06/08 10:20:44;;;;;;;8.50;2.85;;;;;;;17.81;88.56;100755.56;5029435;28;20044;-72
2022/06/08 10:23:15;;;;;;;8.10;2.60;;;;;;;17.79;87.83;100753.88;5020201;28;20045;-72
2022/06/08 10:25:46;;;;;;;7.80;2.70;;;;;;;17.76;87.96;100748.66;5020756;28;20060;-71
2022/06/08 10:28:44;;;;;;;9.98;2.70;;;;;;;17.81;88.18;100752.97;5012158;28;20018;-71
2022/06/08 10:31:24;;;;;;;9.73;2.78;;;;;;;17.78;89.30;100752.16;5022092;28;20033;-72
2022/06/08 10:34:03;;;;;;;9.20;2.97;;;;;;;17.75;88.76;100752.13;5019564;28;20037;-72
2022/06/08 10:36:30;;;;;;;;;;;;;;;17.88;87.60;100753.81;5020057;28;20049;-71
2022/06/08 10:39:00;;;;;;;9.82;2.70;;;;;;;17.72;89.32;100753.03;5018896;28;19916;-72
2022/06/08 10:44:48;;;;;;;9.10;2.83;;;;;;;17.69;87.82;100747.78;5015692;28;20072;-71
2022/06/08 10:47:13;;;;;;;5.85;2.40;;;;;;;17.62;88.14;100752.13;5027599;28;20025;-71
2022/06/08 10:49:38;;;;;;;9.80;2.70;;;;;;;17.58;88.98;100746.94;5023906;28;20060;-70
2022/06/08 10:52:28;;;;;;;9.85;2.90;;;;;;;17.66;88.93;100747.81;5024293;28;20034;-70
2022/06/08 10:55:18;;;;;;;8.32;2.63;;;;;;;17.53;89.06;100749.53;5017248;28;20052;-70
2022/06/08 10:57:49;;;;;;;9.10;2.80;;;;;;;17.53;88.59;100753.88;5013466;28;20168;-75
2022/06/08 11:00:24;;;;;;;6.90;2.60;;;;;;;17.50;89.43;100754.75;5015118;28;20511;-75
2022/06/08 11:03:42;;;;;;;9.32;2.97;;;;;;;17.54;89.16;100745.25;5019232;28;20036;-74
2022/06/08 11:06:10;;;;;;;8.73;3.10;;;;;;;17.50;89.60;100743.50;4985513;28;20049;-75
2022/06/08 11:08:51;;;;;;;11.73;3.30;;;;;;;17.51;89.34;100740.03;5017227;28;20037;-74
2022/06/08 11:11:37;;;;;;;9.93;3.22;;;;;;;17.48;89.63;100733.13;5016606;28;20034;-74
2022/06/08 11:14:28;;;;;;;9.45;2.80;;;;;;;17.47;90.25;100733.09;5019187;28;20040;-74
2022/06/08 11:16:58;;;;;;;7.10;2.92;;;;;;;17.42;89.82;100738.34;5016467;28;20033;-74
2022/06/08 11:19:24;;;;;;;11.50;3.22;;;;;;;17.39;90.43;100725.31;5016615;28;20036;-74
2022/06/08 11:22:02;;;;;;;9.98;3.00;;;;;;;17.36;90.91;100722.75;5019952;28;20056;-74
2022/06/08 11:24:46;;;;;;;9.75;2.53;;;;;;;17.43;90.70;100721.84;5014206;28;20123;-74
2022/06/08 11:27:14;;;;;;;9.20;2.35;;;;;;;17.38;88.89;100713.19;5015368;28;20083;-74
2022/06/08 11:29:48;;;;;;;8.68;2.25;;;;;;;17.38;89.23;100714.06;5019716;28;20072;-74
2022/06/08 11:32:26;;;;;;;5.95;1.98;;;;;;;17.38;88.63;100705.41;5020003;28;20021;-74
2022/06/08 11:35:29;;;;;;;8.85;2.05;;;;;;;17.36;87.75;100710.63;5013306;28;20033;-74
2022/06/08 11:38:16;;;;;;;8.23;2.10;;;;;;;17.36;88.30;100704.56;5013005;28;20029;-73
2022/06/08 11:40:43;;;;;;;9.20;2.30;;;;;;;17.19;88.34;100706.31;5016934;28;20048;-74
2022/06/08 11:43:13;;;;;;;7.70;2.08;;;;;;;17.19;87.63;100701.13;5020072;28;20034;-73
2022/06/08 11:45:44;;;;;;;6.13;2.08;;;;;;;17.21;88.73;100696.78;5002924;28;20154;-74
2022/06/08 11:48:17;;;;;;;7.80;2.15;;;;;;;17.22;89.36;100695.91;5005493;28;20172;-73